Time;durP1;ratioP1;P1;durP2;ratioP2;P2;SDS_P1;SDS_P2;PMS_P1;PMS_P2;Temp;Humidity;BMP_temperature;BMP_pressure;BME280_temperature;BME280_humidity;BME280_pressure;Samples;Min_cycle;Max_cycle;Signal;HPM_P1;HPM_P2
2022/03/30 00:01:52;;;;;;;16.08;14.25;;;;;;;28.95;68.35;100862.28;4999156;28;65568;-36
2022/03/30 00:04:23;;;;;;;20.95;18.17;;;;;;;28.83;70.32;100871.19;5007307;28;69457;-37
2022/03/30 00:06:54;;;;;;;23.95;21.63;;;;;;;28.72;70.59;100875.34;4997536;28;66290;-37
2022/03/30 00:09:25;;;;;;;25.88;23.38;;;;;;;28.65;72.14;100882.63;4997812;28;69524;-38
2022/03/30 00:11:56;;;;;;;29.80;22.23;;;;;;;28.59;71.44;100884.25;4981200;28;66170;-38
2022/03/30 00:14:27;;;;;;;22.63;20.55;;;;;;;28.36;71.93;100871.13;4998246;28;70041;-37
2022/03/30 00:16:57;;;;;;;20.85;17.55;;;;;;;28.43;72.70;100890.03;4998419;28;66212;-38
2022/03/30 00:19:29;;;;;;;19.77;16.23;;;;;;;28.41;71.03;100887.50;4999049;28;69431;-37
2022/03/30 00:22:00;;;;;;;15.02;13.75;;;;;;;28.39;72.33;100894.97;4997415;28;66948;-37
2022/03/30 00:24:30;;;;;;;18.40;16.58;;;;;;;28.07;72.24;100846.09;5000249;28;69753;-37
2022/03/30 00:27:02;;;;;;;18.58;16.67;;;;;;;28.32;73.22;100896.81;5006141;28;66183;-37
2022/03/30 00:29:34;;;;;;;19.02;16.77;;;;;;;28.29;73.26;100905.31;5012890;28;70266;-37
2022/03/30 00:32:06;;;;;;;21.60;16.48;;;;;;;28.32;72.72;100907.59;5013160;28;66229;-36
2022/03/30 00:34:36;;;;;;;18.30;16.40;;;;;;;28.31;73.01;100903.25;4996924;28;68492;-41
2022/03/30 00:37:08;;;;;;;20.73;16.40;;;;;;;28.39;72.67;100911.16;5017635;28;66516;-36
2022/03/30 00:39:39;;;;;;;25.50;20.63;;;;;;;28.32;73.50;100915.69;5018638;28;69709;-36
2022/03/30 00:42:21;;;;;;;22.73;20.17;;;;;;;28.29;73.40;100905.31;5016797;28;66340;-38
2022/03/30 00:44:54;;;;;;;15.88;14.52;;;;;;;28.64;68.37;100924.97;5002615;28;70344;-38
2022/03/30 00:47:27;;;;;;;15.93;14.45;;;;;;;28.81;67.62;100938.09;5010781;28;66326;-38
2022/03/30 00:49:58;;;;;;;14.50;13.18;;;;;;;28.91;67.27;100931.22;5018293;28;69085;-38
2022/03/30 00:52:30;;;;;;;14.65;13.20;;;;;;;28.96;66.51;100926.03;5027575;28;67569;-38
2022/03/30 00:55:01;;;;;;;20.05;14.07;;;;;;;29.10;65.68;100936.91;5002638;28;69319;-38
2022/03/30 00:57:34;;;;;;;13.53;12.40;;;;;;;29.20;65.62;100939.16;4995923;28;66023;-38
2022/03/30 01:00:08;;;;;;;12.93;11.95;;;;;;;29.29;64.76;100938.78;5017472;28;70470;-40
2022/03/30 01:02:43;;;;;;;12.63;11.65;;;;;;;29.32;64.99;100938.34;5017825;28;65212;-38
2022/03/30 01:05:15;;;;;;;11.90;11.10;;;;;;;29.40;64.17;100943.53;5017673;28;69448;-38
2022/03/30 01:07:46;;;;;;;11.52;10.63;;;;;;;29.45;64.21;100942.06;5019910;28;65901;-38
2022/03/30 01:10:19;;;;;;;12.70;11.63;;;;;;;29.53;63.99;100947.25;5018131;28;70079;-38
2022/03/30 01:12:52;;;;;;;12.45;11.45;;;;;;;29.57;63.91;100959.34;5014811;28;65260;-38
2022/03/30 01:15:23;;;;;;;11.18;10.45;;;;;;;29.62;64.05;100975.75;5017679;28;69781;-38
2022/03/30 01:17:53;;;;;;;10.65;10.07;;;;;;;29.66;63.33;100968.09;5033435;28;66101;-38
2022/03/30 01:20:25;;;;;;;10.88;10.15;;;;;;;29.70;63.32;100972.88;5019842;28;70138;-38
2022/03/30 01:23:02;;;;;;;12.25;11.10;;;;;;;29.62;63.11;100954.13;5031755;28;66634;-38
2022/03/30 01:25:33;;;;;;;11.20;10.30;;;;;;;29.76;63.05;100976.59;5019611;28;70316;-38
2022/03/30 01:28:05;;;;;;;11.15;10.20;;;;;;;29.83;62.77;100978.22;5019741;28;66453;-38
2022/03/30 01:33:25;;;;;;;11.57;10.50;;;;;;;29.89;62.57;100975.75;5019460;28;66544;-37
2022/03/30 01:35:55;;;;;;;10.83;9.90;;;;;;;29.93;62.77;100968.88;5019515;28;69758;-38
2022/03/30 01:38:26;;;;;;;9.70;9.00;;;;;;;29.96;62.54;100973.88;5019818;28;65113;-38
2022/03/30 01:40:57;;;;;;;10.70;9.85;;;;;;;30.01;62.33;100979.47;5030905;28;69420;-38
2022/03/30 01:43:30;;;;;;;9.75;9.15;;;;;;;30.05;61.91;100996.91;5019641;28;65427;-38
2022/03/30 01:46:01;;;;;;;10.75;9.82;;;;;;;30.05;61.73;100980.69;4999092;28;68767;-37
2022/03/30 01:48:32;;;;;;;10.20;9.50;;;;;;;30.09;61.44;100998.19;5018314;28;65762;-37
2022/03/30 01:51:03;;;;;;;10.82;9.73;;;;;;;30.15;62.03;100997.31;5019468;28;69302;-37
2022/03/30 01:53:33;;;;;;;10.50;9.77;;;;;;;30.18;61.83;100991.47;5011428;28;66764;-37
2022/03/30 01:56:04;;;;;;;10.15;9.40;;;;;;;30.23;61.27;100999.00;5018234;28;69459;-38
2022/03/30 01:58:35;;;;;;;9.13;8.52;;;;;;;30.25;60.98;100989.59;5020215;28;67696;-38
2022/03/30 02:01:06;;;;;;;9.52;9.02;;;;;;;30.28;60.95;100997.31;5019726;28;69905;-38
2022/03/30 02:03:34;;;;;;;8.85;8.15;;;;;;;30.33;60.64;100993.13;5018594;28;65285;-38
2022/03/30 02:06:06;;;;;;;9.07;8.57;;;;;;;30.35;60.71;100996.47;5019440;28;69906;-37
2022/03/30 02:08:37;;;;;;;9.85;9.07;;;;;;;30.36;60.58;100992.69;5019361;28;66215;-37
2022/03/30 02:11:08;;;;;;;8.80;8.02;;;;;;;30.41;60.30;100991.00;5014523;28;70796;-38
2022/03/30 02:13:39;;;;;;;9.52;9.02;;;;;;;30.44;60.05;100995.16;5012685;28;66200;-37
2022/03/30 02:16:10;;;;;;;9.18;8.45;;;;;;;30.43;60.58;100996.22;5019525;28;70327;-37
2022/03/30 02:18:40;;;;;;;8.45;8.02;;;;;;;30.44;60.03;100995.16;4981091;28;66116;-38
2022/03/30 02:21:11;;;;;;;8.95;8.32;;;;;;;30.49;60.19;100987.22;5000594;28;70319;-37
2022/03/30 02:23:43;;;;;;;8.18;7.78;;;;;;;30.56;59.79;100993.44;5003082;28;66094;-37
2022/03/30 02:26:14;;;;;;;;;;;;;;;30.23;60.23;100997.13;4981466;28;70533;-37
2022/03/30 02:28:45;;;;;;;8.88;8.18;;;;;;;30.58;59.34;100999.47;4974985;28;65072;-37
2022/03/30 02:31:16;;;;;;;8.48;7.97;;;;;;;30.66;59.38;101003.81;4982058;28;70213;-36
2022/03/30 02:33:47;;;;;;;8.23;7.72;;;;;;;30.69;59.56;101004.19;4983118;28;66144;-37
2022/03/30 02:36:18;;;;;;;8.30;7.60;;;;;;;30.69;58.97;100996.06;4997289;28;69673;-37
2022/03/30 02:38:50;;;;;;;8.98;8.38;;;;;;;30.73;59.35;100988.38;4975921;28;65797;-37
2022/03/30 02:41:21;;;;;;;7.80;7.30;;;;;;;30.78;58.88;100985.00;4996062;28;69434;-37
2022/03/30 02:43:52;;;;;;;7.80;7.32;;;;;;;30.76;59.06;100971.69;4980715;28;65773;-37
2022/03/30 02:46:23;;;;;;;7.82;7.18;;;;;;;30.84;58.54;100966.03;4999240;28;70189;-37
2022/03/30 02:48:53;;;;;;;7.90;7.18;;;;;;;30.88;58.89;100969.13;5002194;28;65616;-37
2022/03/30 02:51:27;;;;;;;7.70;7.20;;;;;;;30.77;58.67;100934.59;4993042;28;69025;-37
2022/03/30 02:53:58;;;;;;;9.07;7.10;;;;;;;30.93;58.63;100944.94;5012739;28;66655;-38
2022/03/30 02:56:29;;;;;;;8.05;7.35;;;;;;;30.92;58.36;100927.00;4993180;28;70169;-38
2022/03/30 02:59:00;;;;;;;8.20;7.60;;;;;;;30.98;58.38;100931.56;5001177;28;66141;-38
2022/03/30 03:01:31;;;;;;;7.78;7.18;;;;;;;30.98;58.07;100918.03;5001414;28;70503;-38
2022/03/30 03:04:02;;;;;;;8.10;7.47;;;;;;;31.03;58.04;100934.44;4998206;28;65890;-38
2022/03/30 03:06:33;;;;;;;7.80;7.28;;;;;;;31.02;57.70;100927.38;5002144;28;69924;-38
2022/03/30 03:09:03;;;;;;;7.43;6.97;;;;;;;31.07;58.05;100918.59;5001461;28;66918;-38
2022/03/30 03:11:35;;;;;;;7.95;7.45;;;;;;;31.12;57.70;100911.44;5002028;28;70550;-38
2022/03/30 03:14:07;;;;;;;8.23;7.38;;;;;;;31.13;57.73;100907.69;5000793;28;66700;-38
2022/03/30 03:16:38;;;;;;;7.53;7.07;;;;;;;31.16;57.67;100912.66;5000826;28;70361;-38
2022/03/30 03:19:09;;;;;;;7.10;6.70;;;;;;;31.21;57.63;100913.88;4993091;28;66911;-38
2022/03/30 03:21:40;;;;;;;7.43;6.82;;;;;;;31.22;57.27;100915.53;4980450;28;70460;-37
2022/03/30 03:24:11;;;;;;;6.65;6.25;;;;;;;31.25;57.09;100915.09;4981928;28;66589;-38
2022/03/30 03:26:41;;;;;;;7.25;6.85;;;;;;;31.27;57.61;100924.66;4991007;28;69745;-37
2022/03/30 03:29:12;;;;;;;7.18;6.78;;;;;;;31.30;57.22;100923.38;4978845;28;65296;-37
2022/03/30 03:31:43;;;;;;;7.00;6.60;;;;;;;31.33;57.20;100934.59;4981240;28;69241;-37
2022/03/30 03:34:15;;;;;;;7.30;6.80;;;;;;;31.36;56.86;100919.81;4995349;28;65962;-37
2022/03/30 03:36:46;;;;;;;7.07;6.67;;;;;;;31.36;56.69;100923.34;4970568;28;69787;-37
2022/03/30 03:39:18;;;;;;;7.07;6.47;;;;;;;31.41;57.31;100917.25;4979474;28;66003;-37
2022/03/30 03:41:49;;;;;;;6.88;6.47;;;;;;;31.44;56.55;100914.09;4956566;28;71384;-38
2022/03/30 03:44:19;;;;;;;6.75;6.35;;;;;;;31.42;56.84;100905.34;4980394;28;65474;-37
2022/03/30 03:46:50;;;;;;;6.88;6.47;;;;;;;31.49;56.50;100906.13;4981269;28;70168;-38
2022/03/30 03:49:21;;;;;;;6.85;6.13;;;;;;;31.45;56.72;100894.06;4981414;28;68052;-44
2022/03/30 03:51:52;;;;;;;6.32;5.93;;;;;;;31.51;56.66;100892.34;4981048;28;69929;-41
2022/03/30 03:54:23;;;;;;;6.68;6.18;;;;;;;31.53;56.46;100891.06;4979298;28;66448;-36
2022/03/30 03:56:53;;;;;;;7.72;6.43;;;;;;;31.48;56.31;100871.94;4972843;28;69654;-38
2022/03/30 03:59:24;;;;;;;6.70;6.30;;;;;;;31.53;56.66;100869.38;4990743;28;66080;-37
2022/03/30 04:01:55;;;;;;;6.70;6.25;;;;;;;31.52;56.53;100865.00;5001277;28;69293;-37
2022/03/30 04:04:26;;;;;;;7.00;6.37;;;;;;;31.59;56.45;100876.63;4991639;28;66085;-38
2022/03/30 04:06:57;;;;;;;6.13;5.82;;;;;;;31.59;56.22;100871.22;5000419;28;70128;-37
2022/03/30 04:09:28;;;;;;;9.70;6.97;;;;;;;31.60;56.33;100861.19;4992960;28;66680;-37
2022/03/30 04:11:58;;;;;;;7.13;6.53;;;;;;;31.65;56.21;100855.06;5009601;28;71123;-37
2022/03/30 04:14:29;;;;;;;6.07;5.75;;;;;;;31.66;56.20;100856.75;4999927;28;66285;-37
2022/03/30 04:17:00;;;;;;;6.50;6.00;;;;;;;31.59;56.21;100835.97;5008628;28;69332;-37
2022/03/30 04:19:31;;;;;;;6.85;6.35;;;;;;;31.69;55.95;100850.84;4987508;28;65658;-37
2022/03/30 04:22:02;;;;;;;6.97;5.95;;;;;;;31.73;56.16;100854.75;4980645;28;70699;-37
2022/03/30 04:24:33;;;;;;;8.65;5.75;;;;;;;31.71;56.27;100836.03;4971107;28;66112;-37
2022/03/30 04:27:04;;;;;;;6.38;5.97;;;;;;;31.75;55.97;100834.50;4988762;28;70766;-39
2022/03/30 04:29:35;;;;;;;6.40;6.10;;;;;;;31.68;55.95;100824.78;4999927;28;66551;-38
2022/03/30 04:32:06;;;;;;;6.00;5.70;;;;;;;31.72;55.71;100823.28;4999715;28;70438;-37
2022/03/30 04:34:37;;;;;;;6.43;6.00;;;;;;;31.74;56.17;100808.44;4996108;28;65899;-37
2022/03/30 04:37:07;;;;;;;6.60;6.20;;;;;;;31.79;55.90;100796.91;4997780;28;70017;-37
2022/03/30 04:39:38;;;;;;;6.75;6.25;;;;;;;31.81;55.70;100800.22;4977562;28;65432;-37
2022/03/30 04:42:10;;;;;;;5.97;5.47;;;;;;;31.81;55.65;100800.22;5001509;28;70958;-37
2022/03/30 04:44:41;;;;;;;7.40;6.88;;;;;;;31.86;55.79;100792.22;5011706;28;66567;-37
2022/03/30 04:47:12;;;;;;;6.75;6.25;;;;;;;31.87;56.08;100790.31;5014332;28;69167;-37
2022/03/30 04:49:43;;;;;;;6.53;5.97;;;;;;;31.90;56.18;100777.16;5014838;28;66543;-37
2022/03/30 04:52:13;;;;;;;6.50;6.00;;;;;;;31.97;56.01;100777.91;5017436;28;70448;-37
2022/03/30 04:54:44;;;;;;;6.70;6.10;;;;;;;31.99;56.12;100766.84;5019178;28;66528;-38
2022/03/30 04:57:15;;;;;;;7.05;6.50;;;;;;;32.00;55.82;100753.03;5018923;28;70566;-37
2022/03/30 04:59:46;;;;;;;7.30;6.53;;;;;;;31.82;56.92;100731.38;5001470;28;65995;-37
2022/03/30 05:02:17;;;;;;;7.30;6.90;;;;;;;31.69;57.89;100734.25;5014278;28;68696;-37
2022/03/30 05:04:49;;;;;;;7.78;7.13;;;;;;;31.60;58.23;100723.72;5015837;28;65999;-37
2022/03/30 05:07:19;;;;;;;7.17;6.63;;;;;;;31.46;58.34;100711.41;5001308;28;69039;-37
2022/03/30 05:09:59;;;;;;;7.70;7.00;;;;;;;31.46;58.68;100710.56;5015837;28;66777;-37
2022/03/30 05:12:30;;;;;;;7.90;7.22;;;;;;;31.45;58.53;100704.31;5014177;28;70564;-37
2022/03/30 05:15:07;;;;;;;6.95;6.55;;;;;;;31.44;58.88;100686.41;5013733;28;64374;-37
2022/03/30 05:17:40;;;;;;;6.88;6.38;;;;;;;31.44;58.89;100699.94;5006836;28;69405;-37
2022/03/30 05:20:16;;;;;;;6.95;6.50;;;;;;;31.40;59.04;100682.50;5016315;28;66347;-37
2022/03/30 05:22:47;;;;;;;7.03;6.47;;;;;;;31.45;58.81;100677.19;4993976;28;69848;-36
2022/03/30 05:25:21;;;;;;;6.97;5.85;;;;;;;31.42;59.19;100676.84;4999759;28;65818;-36
2022/03/30 05:27:52;;;;;;;6.70;6.22;;;;;;;31.45;59.16;100669.06;4993578;28;67230;-38
2022/03/30 05:30:25;;;;;;;7.10;6.60;;;;;;;31.47;58.87;100658.81;5008265;28;66283;-37
2022/03/30 05:32:58;;;;;;;7.70;6.57;;;;;;;31.51;58.91;100648.34;4992352;28;70080;-37
2022/03/30 05:35:29;;;;;;;6.35;5.95;;;;;;;31.48;58.85;100644.22;5017890;28;66644;-37
2022/03/30 05:37:59;;;;;;;6.88;6.47;;;;;;;31.48;58.91;100632.53;5013970;28;70360;-37
2022/03/30 05:40:31;;;;;;;6.43;6.03;;;;;;;31.52;59.27;100629.16;5012517;28;66095;-37
2022/03/30 05:43:02;;;;;;;6.63;6.13;;;;;;;31.56;58.76;100633.03;5013950;28;70627;-38
2022/03/30 05:45:33;;;;;;;7.40;6.70;;;;;;;31.64;58.84;100617.50;4998960;28;65243;-38
2022/03/30 05:48:04;;;;;;;7.00;6.40;;;;;;;31.60;58.71;100620.69;4998966;28;70379;-38
2022/03/30 05:50:39;;;;;;;8.35;6.60;;;;;;;31.60;58.64;100614.44;4978075;28;64567;-38
2022/03/30 05:53:10;;;;;;;6.45;6.00;;;;;;;31.65;58.73;100617.28;4985842;28;69598;-38
2022/03/30 05:55:46;;;;;;;7.07;6.30;;;;;;;31.63;58.99;100611.25;5020351;28;66779;-38
2022/03/30 05:58:18;;;;;;;7.88;7.18;;;;;;;31.58;60.20;100611.94;5004534;28;70212;-37
2022/03/30 06:00:51;;;;;;;7.97;7.32;;;;;;;31.51;61.06;100589.56;5017644;28;65753;-38
2022/03/30 06:03:22;;;;;;;7.35;6.65;;;;;;;31.61;61.09;100587.09;5021725;28;70359;-38
2022/03/30 06:05:53;;;;;;;8.85;8.02;;;;;;;31.58;61.43;100579.41;5018537;28;65902;-39
2022/03/30 06:08:24;;;;;;;8.25;7.65;;;;;;;31.65;61.67;100578.47;5012795;28;69663;-37
2022/03/30 06:10:54;;;;;;;7.95;7.38;;;;;;;31.65;61.55;100570.34;5021541;28;65653;-38
2022/03/30 06:13:25;;;;;;;9.02;7.57;;;;;;;31.67;61.81;100565.53;5000191;28;70064;-37
2022/03/30 06:15:56;;;;;;;8.63;8.10;;;;;;;31.68;61.83;100550.91;5018357;28;66234;-38
2022/03/30 06:18:27;;;;;;;8.88;8.25;;;;;;;31.67;61.80;100555.50;5007811;28;69890;-35
2022/03/30 06:20:57;;;;;;;11.77;7.47;;;;;;;31.45;61.77;100498.28;5003083;28;66938;-35
2022/03/30 06:23:28;;;;;;;7.70;7.10;;;;;;;31.73;61.96;100532.03;5001456;28;69365;-35
2022/03/30 06:26:01;;;;;;;8.32;7.75;;;;;;;31.76;61.58;100539.72;5002601;28;66439;-36
2022/03/30 06:28:31;;;;;;;8.77;8.10;;;;;;;31.83;61.80;100533.13;5001891;28;70150;-36
2022/03/30 06:31:02;;;;;;;9.30;7.50;;;;;;;31.80;61.82;100533.59;5008991;28;66463;-36
2022/03/30 06:33:33;;;;;;;8.05;7.55;;;;;;;31.85;61.79;100530.19;5024689;28;69535;-36
2022/03/30 06:36:05;;;;;;;8.85;7.97;;;;;;;31.87;61.93;100517.19;5004150;28;66503;-36
2022/03/30 06:38:36;;;;;;;;;;;;;;;31.64;62.31;100520.72;5016296;28;69582;-36
2022/03/30 06:41:07;;;;;;;7.55;7.03;;;;;;;31.91;61.53;100510.28;5028811;28;66275;-36
2022/03/30 06:43:42;;;;;;;8.07;7.28;;;;;;;31.91;62.04;100513.00;5024964;28;70392;-36
2022/03/30 06:46:14;;;;;;;7.72;7.22;;;;;;;31.68;61.68;100461.41;5007160;28;65575;-37
2022/03/30 06:48:46;;;;;;;8.60;7.90;;;;;;;31.98;61.31;100483.88;4981464;28;69982;-36
2022/03/30 06:51:17;;;;;;;8.13;7.63;;;;;;;31.96;61.39;100494.13;4996261;28;66303;-37
2022/03/30 06:53:48;;;;;;;8.07;7.60;;;;;;;31.96;61.55;100487.88;5001400;28;69768;-37
2022/03/30 06:56:19;;;;;;;7.75;7.32;;;;;;;32.02;61.59;100493.16;4996474;28;65394;-36
2022/03/30 06:58:50;;;;;;;10.02;7.70;;;;;;;31.97;61.31;100474.06;4994742;28;69844;-36
2022/03/30 07:01:21;;;;;;;8.48;7.78;;;;;;;32.02;61.38;100476.88;4998870;28;66321;-36
2022/03/30 07:03:51;;;;;;;8.45;7.50;;;;;;;32.03;61.50;100467.69;5017919;28;69658;-36
2022/03/30 07:06:22;;;;;;;8.15;7.65;;;;;;;32.04;61.40;100463.09;4981732;28;64957;-36
2022/03/30 07:11:42;;;;;;;7.80;7.18;;;;;;;32.11;61.20;100444.78;4996119;28;65802;-37
2022/03/30 07:14:13;;;;;;;8.25;7.65;;;;;;;32.07;61.14;100432.78;5013620;28;70677;-37
2022/03/30 07:16:44;;;;;;;11.07;7.37;;;;;;;32.12;61.16;100445.59;5017119;28;65375;-37
2022/03/30 07:19:15;;;;;;;7.68;7.00;;;;;;;32.11;60.93;100424.97;4998781;28;69471;-37
2022/03/30 07:21:46;;;;;;;8.32;7.65;;;;;;;32.19;60.87;100432.75;4997951;28;66625;-36
2022/03/30 07:24:17;;;;;;;7.20;6.70;;;;;;;32.19;60.93;100443.59;4979304;28;69393;-37
2022/03/30 07:26:47;;;;;;;9.30;7.57;;;;;;;32.16;61.00;100427.78;5006000;28;66688;-36
2022/03/30 07:29:18;;;;;;;7.88;7.43;;;;;;;32.03;60.85;100399.03;4977470;28;69432;-37
2022/03/30 07:31:49;;;;;;;8.80;8.10;;;;;;;32.24;60.90;100427.41;4978247;28;66115;-37
2022/03/30 07:34:19;;;;;;;8.85;8.20;;;;;;;32.22;61.02;100422.22;4989843;28;70672;-36
2022/03/30 07:36:50;;;;;;;9.00;8.20;;;;;;;32.17;60.89;100407.72;4978236;28;66577;-37
2022/03/30 07:39:21;;;;;;;11.50;8.35;;;;;;;32.27;60.94;100426.94;4979587;28;70262;-37
2022/03/30 07:41:52;;;;;;;8.63;8.05;;;;;;;32.10;60.85;100385.34;4978424;28;66394;-36
2022/03/30 07:44:23;;;;;;;10.80;8.60;;;;;;;32.04;61.17;100381.72;4969697;28;69599;-37
2022/03/30 07:46:54;;;;;;;10.15;8.90;;;;;;;32.20;61.20;100396.38;4987117;28;66083;-36
2022/03/30 07:49:25;;;;;;;9.27;8.57;;;;;;;32.22;60.96;100405.94;4974999;28;71549;-37
2022/03/30 07:51:56;;;;;;;9.80;8.98;;;;;;;32.27;61.06;100402.50;4991677;28;65850;-36
2022/03/30 07:54:28;;;;;;;10.45;9.32;;;;;;;32.30;61.20;100412.88;4990430;28;69931;-36
2022/03/30 07:56:59;;;;;;;10.40;9.50;;;;;;;32.09;61.16;100372.81;4994435;28;65485;-37
2022/03/30 07:59:29;;;;;;;10.63;9.68;;;;;;;32.29;61.34;100394.97;4985923;28;69511;-37
2022/03/30 08:02:01;;;;;;;9.65;8.77;;;;;;;32.29;61.16;100400.38;4973918;28;66388;-37
2022/03/30 08:04:31;;;;;;;11.05;9.93;;;;;;;32.28;61.41;100399.53;4968613;28;70000;-37
2022/03/30 08:07:03;;;;;;;9.73;9.02;;;;;;;32.25;61.31;100385.63;4977642;28;68062;-37
2022/03/30 08:09:33;;;;;;;10.32;9.43;;;;;;;32.34;60.95;100386.88;4985338;28;70105;-38
2022/03/30 08:12:05;;;;;;;9.68;8.90;;;;;;;32.40;61.14;100377.81;4981390;28;66056;-37
2022/03/30 08:14:36;;;;;;;10.57;9.65;;;;;;;32.43;61.00;100374.59;4997158;28;68993;-37
2022/03/30 08:17:06;;;;;;;11.75;10.43;;;;;;;32.41;61.00;100355.00;4995515;28;66369;-37
2022/03/30 08:19:37;;;;;;;14.60;10.77;;;;;;;32.40;61.03;100353.38;4997289;28;70413;-36
2022/03/30 08:22:28;;;;;;;12.07;9.90;;;;;;;32.52;60.75;100375.06;4997020;28;66300;-37
2022/03/30 08:25:06;;;;;;;10.73;9.80;;;;;;;32.56;60.68;100376.19;4996706;28;70112;-38
2022/03/30 08:27:43;;;;;;;11.15;10.43;;;;;;;32.58;60.67;100367.81;4993870;28;65750;-37
2022/03/30 08:30:14;;;;;;;10.45;9.63;;;;;;;32.62;60.68;100360.81;5014812;28;70354;-37
2022/03/30 08:32:44;;;;;;;10.70;9.75;;;;;;;32.68;60.21;100357.13;5015311;28;66162;-37
2022/03/30 08:35:16;;;;;;;10.68;9.82;;;;;;;32.69;60.64;100366.94;5012877;28;69559;-38
2022/03/30 08:37:47;;;;;;;10.68;9.77;;;;;;;32.75;60.47;100368.66;4991909;28;65960;-37
2022/03/30 08:40:18;;;;;;;12.77;9.63;;;;;;;32.76;60.50;100364.88;4993476;28;69799;-37
2022/03/30 08:42:49;;;;;;;11.40;10.40;;;;;;;32.78;60.45;100360.03;4997140;28;66492;-36
2022/03/30 08:45:21;;;;;;;10.50;9.68;;;;;;;32.77;60.54;100358.38;4999949;28;69397;-36
2022/03/30 08:47:53;;;;;;;9.73;9.13;;;;;;;32.79;60.75;100349.97;4984931;28;65683;-37
2022/03/30 08:50:24;;;;;;;10.82;9.82;;;;;;;32.78;60.58;100343.72;5001605;28;70098;-36
2022/03/30 08:52:59;;;;;;;10.18;9.23;;;;;;;32.84;60.59;100348.16;5014454;28;66507;-37
2022/03/30 08:55:31;;;;;;;10.07;9.20;;;;;;;32.83;60.46;100346.53;5002706;28;69602;-37
2022/03/30 08:58:02;;;;;;;10.88;10.18;;;;;;;32.79;60.59;100344.53;4992324;28;64401;-37
2022/03/30 09:00:34;;;;;;;11.60;9.73;;;;;;;32.86;60.54;100359.63;5004972;28;69979;-37
2022/03/30 09:03:07;;;;;;;9.90;9.20;;;;;;;32.90;60.41;100358.06;5006946;28;66184;-36
2022/03/30 09:05:40;;;;;;;10.55;9.35;;;;;;;32.94;60.40;100356.50;5005161;28;70136;-36
2022/03/30 09:08:18;;;;;;;9.85;9.15;;;;;;;32.65;60.08;100296.00;5016190;28;66248;-37
2022/03/30 09:10:53;;;;;;;12.45;9.35;;;;;;;32.98;60.16;100345.13;5006320;28;69605;-36
2022/03/30 09:13:24;;;;;;;10.88;9.85;;;;;;;33.03;60.17;100345.25;5003678;28;65419;-36
2022/03/30 09:15:55;;;;;;;8.63;8.10;;;;;;;33.05;59.63;100343.13;5009785;28;70096;-36
2022/03/30 09:18:26;;;;;;;9.65;8.82;;;;;;;33.02;60.19;100340.91;5014305;28;66499;-37
2022/03/30 09:20:59;;;;;;;10.05;9.15;;;;;;;33.08;59.86;100353.47;5012500;28;70183;-37
2022/03/30 09:23:32;;;;;;;10.13;9.23;;;;;;;33.08;59.73;100358.91;4991549;28;66554;-37
2022/03/30 09:26:03;;;;;;;10.40;9.43;;;;;;;33.07;59.44;100343.66;4918391;28;2694046;-37
2022/03/30 09:28:35;;;;;;;9.13;8.50;;;;;;;33.06;59.86;100347.47;5016616;28;66225;-37
2022/03/30 09:31:06;;;;;;;19.70;9.32;;;;;;;33.09;59.96;100358.66;5013476;28;70102;-37
2022/03/30 09:33:38;;;;;;;11.77;8.97;;;;;;;32.76;59.89;100307.84;4997170;28;66872;-36
2022/03/30 09:36:36;;;;;;;10.45;8.57;;;;;;;33.03;59.76;100361.56;5017383;28;70158;-37
2022/03/30 09:39:09;;;;;;;9.52;8.70;;;;;;;33.17;59.68;100373.72;5015156;28;66226;-37
2022/03/30 09:41:49;;;;;;;9.15;8.25;;;;;;;33.13;59.78;100378.03;5017690;28;70514;-37
2022/03/30 09:44:21;;;;;;;12.88;8.32;;;;;;;33.15;59.72;100384.00;5017478;28;66496;-37
2022/03/30 09:46:52;;;;;;;;;;;;;;;32.85;60.35;100382.44;5013584;28;70485;-36
2022/03/30 09:49:36;;;;;;;8.55;7.70;;;;;;;33.09;59.90;100388.53;5010466;28;67181;-36
2022/03/30 09:52:15;;;;;;;8.43;7.82;;;;;;;33.15;59.51;100393.00;4999818;28;70337;-36
2022/03/30 09:54:54;;;;;;;9.98;8.85;;;;;;;33.14;59.42;100395.97;5013624;28;66874;-37
2022/03/30 09:57:27;;;;;;;7.93;7.32;;;;;;;32.81;59.48;100337.81;5010266;28;70229;-36
2022/03/30 10:00:18;;;;;;;8.95;8.23;;;;;;;33.03;59.59;100384.09;5019265;28;65573;-38
2022/03/30 10:02:51;;;;;;;8.98;8.27;;;;;;;32.75;59.46;100324.41;4996321;28;71990;-37
2022/03/30 10:05:23;;;;;;;8.02;7.28;;;;;;;33.21;57.81;100402.06;5005927;28;65745;-37
2022/03/30 10:07:55;;;;;;;13.73;7.00;;;;;;;33.15;54.49;100384.88;5017070;28;70288;-37
2022/03/30 10:10:27;;;;;;;6.93;6.25;;;;;;;33.24;54.95;100396.13;5005508;28;65693;-38
2022/03/30 10:12:57;;;;;;;7.45;6.82;;;;;;;33.27;55.49;100397.53;5016137;28;70751;-38
2022/03/30 10:15:28;;;;;;;7.93;6.93;;;;;;;33.32;55.81;100393.00;5017793;28;66779;-37
2022/03/30 10:17:59;;;;;;;7.82;6.35;;;;;;;33.35;52.37;100394.41;4995730;28;69199;-36
2022/03/30 10:20:31;;;;;;;8.00;7.20;;;;;;;33.40;51.55;100399.06;4995330;28;64854;-36
2022/03/30 10:23:39;;;;;;;7.97;7.30;;;;;;;33.06;51.61;100361.06;4998569;28;69311;-37
2022/03/30 10:26:26;;;;;;;9.45;6.88;;;;;;;33.47;51.22;100416.06;4994675;28;65906;-38
2022/03/30 10:29:01;;;;;;;9.13;7.72;;;;;;;33.56;51.22;100420.03;4994564;28;70238;-38
2022/03/30 10:31:32;;;;;;;6.70;6.20;;;;;;;33.46;50.88;100412.50;4988508;28;65409;-38
2022/03/30 10:34:26;;;;;;;8.48;7.57;;;;;;;33.43;50.83;100436.63;4995943;28;70548;-38
2022/03/30 10:37:07;;;;;;;7.68;6.95;;;;;;;33.40;51.52;100426.25;4993547;28;64963;-39
2022/03/30 10:40:18;;;;;;;10.02;9.07;;;;;;;33.30;52.45;100433.19;4995336;28;70219;-39
2022/03/30 10:42:54;;;;;;;11.32;9.30;;;;;;;33.45;52.80;100434.50;4922789;28;65606;-40
2022/03/30 10:45:43;;;;;;;10.38;9.38;;;;;;;33.34;53.56;100438.94;4992272;28;68935;-40
2022/03/30 10:48:28;;;;;;;15.20;10.05;;;;;;;33.38;54.80;100434.69;5005432;28;66213;-37
2022/03/30 10:51:11;;;;;;;21.50;12.88;;;;;;;33.34;54.66;100447.94;5009077;28;69982;-38
2022/03/30 10:53:43;;;;;;;14.88;12.63;;;;;;;33.07;54.80;100398.00;4954393;28;65851;-38
2022/03/30 10:56:18;;;;;;;18.25;12.88;;;;;;;33.36;55.51;100443.06;4996052;28;68764;-38
2022/03/30 10:58:52;;;;;;;15.38;12.90;;;;;;;33.36;54.98;100443.06;4991336;28;66525;-37
2022/03/30 11:01:25;;;;;;;14.40;12.90;;;;;;;33.33;55.63;100437.31;5014188;28;69837;-38
2022/03/30 11:04:13;;;;;;;13.48;12.15;;;;;;;32.87;55.89;100388.41;5009322;28;65407;-38
2022/03/30 11:06:47;;;;;;;16.05;13.70;;;;;;;32.95;55.22;100379.06;4995755;28;69897;-39
2022/03/30 11:09:28;;;;;;;16.58;14.38;;;;;;;33.30;54.75;100452.22;4999841;28;66191;-38
2022/03/30 11:12:12;;;;;;;18.43;15.90;;;;;;;33.24;54.56;100438.78;5004631;28;69473;-38
2022/03/30 11:14:59;;;;;;;23.40;15.48;;;;;;;33.18;54.20;100437.88;5000095;28;65336;-38
2022/03/30 11:17:32;;;;;;;19.27;15.63;;;;;;;32.96;54.12;100405.16;5011717;28;70000;-38
2022/03/30 11:20:09;;;;;;;23.02;15.32;;;;;;;33.24;55.17;100452.38;5006957;28;66594;-39
2022/03/30 11:22:44;;;;;;;20.27;15.75;;;;;;;33.23;55.88;100459.69;5011567;28;70358;-38
2022/03/30 11:25:26;;;;;;;19.45;14.65;;;;;;;33.20;56.10;100467.53;5013431;28;65096;-47
2022/03/30 11:28:01;;;;;;;;;;;;;;;32.89;56.83;100466.97;5027520;28;70061;-39
2022/03/30 11:30:37;;;;;;;27.55;16.33;;;;;;;33.19;57.70;100480.31;5014557;28;65942;-39
2022/03/30 11:33:22;;;;;;;20.77;17.25;;;;;;;33.17;57.62;100487.06;5001910;28;70226;-37
2022/03/30 11:35:54;;;;;;;18.05;15.25;;;;;;;33.13;57.87;100494.88;4986971;28;65132;-38
2022/03/30 11:38:32;;;;;;;18.25;16.02;;;;;;;32.82;58.12;100453.56;4991721;28;70633;-39
2022/03/30 11:41:08;;;;;;;22.80;17.13;;;;;;;33.18;58.66;100524.84;5017250;28;66728;-39
2022/03/30 11:46:32;;;;;;;22.83;18.60;;;;;;;32.87;58.31;100488.94;5019697;28;65923;-39
2022/03/30 11:49:05;;;;;;;31.35;18.88;;;;;;;33.19;58.30;100540.09;5015255;28;69627;-36
2022/03/30 11:51:37;;;;;;;21.52;17.80;;;;;;;33.13;58.68;100535.66;5001049;28;66235;-37
2022/03/30 11:54:16;;;;;;;27.15;19.15;;;;;;;32.91;58.41;100495.53;5023583;28;69646;-38
2022/03/30 11:56:51;;;;;;;25.63;18.00;;;;;;;32.86;58.23;100492.72;5010734;28;65963;-39